Time;durP1;ratioP1;P1;durP2;ratioP2;P2;SDS_P1;SDS_P2;PMS_P1;PMS_P2;Temp;Humidity;BMP_temperature;BMP_pressure;BME280_temperature;BME280_humidity;BME280_pressure;Samples;Min_cycle;Max_cycle;Signal;HPM_P1;HPM_P2
2022/09/04 00:02:10;;;;;;;5.80;2.17;;;;;;;15.30;100.00;98941.28;5110293;28;20046;-83
2022/09/04 00:04:44;;;;;;;5.18;2.65;;;;;;;15.20;100.00;98923.44;5109443;28;20048;-82
2022/09/04 00:07:21;;;;;;;4.00;2.53;;;;;;;15.09;100.00;98921.41;5110109;28;20393;-82
2022/09/04 00:10:01;;;;;;;3.30;2.45;;;;;;;15.23;100.00;98941.31;5110301;28;20043;-82
2022/09/04 00:12:33;;;;;;;3.53;2.30;;;;;;;15.15;100.00;98936.94;5108861;28;20051;-82
2022/09/04 00:15:07;;;;;;;3.20;2.45;;;;;;;15.31;100.00;98941.06;5107164;28;20040;-82
2022/09/04 00:17:41;;;;;;;4.00;3.08;;;;;;;15.24;100.00;98933.97;5110250;28;20415;-82
2022/09/04 00:20:13;;;;;;;4.55;2.20;;;;;;;15.21;100.00;98940.72;5110200;28;20051;-82
2022/09/04 00:22:51;;;;;;;5.40;2.70;;;;;;;15.16;100.00;98938.63;5110503;28;20047;-82
2022/09/04 00:25:23;;;;;;;5.35;2.47;;;;;;;15.07;100.00;98936.38;5114436;28;20134;-82
2022/09/04 00:27:55;;;;;;;3.92;2.40;;;;;;;14.90;100.00;98930.56;5113770;28;20587;-82
2022/09/04 00:30:23;;;;;;;4.60;2.13;;;;;;;14.97;100.00;98947.81;5113557;28;20048;-82
2022/09/04 00:32:58;;;;;;;4.30;2.33;;;;;;;15.02;100.00;98948.84;5113584;28;20044;-82
2022/09/04 00:35:30;;;;;;;4.10;2.35;;;;;;;14.95;100.00;98952.63;5114172;28;20411;-82
2022/09/04 00:38:02;;;;;;;3.25;2.60;;;;;;;14.75;100.00;98934.41;5114752;28;20052;-82
2022/09/04 00:40:34;;;;;;;2.75;2.10;;;;;;;14.89;100.00;98950.78;5113297;28;20047;-82
2022/09/04 00:43:24;;;;;;;2.97;2.30;;;;;;;14.77;100.00;98965.16;5112593;27;20423;-82
2022/09/04 00:46:08;;;;;;;3.25;2.20;;;;;;;14.52;100.00;98937.66;5113504;28;20043;-81
2022/09/04 00:49:06;;;;;;;3.10;2.30;;;;;;;14.50;100.00;98953.44;5113535;28;20052;-82
2022/09/04 00:51:43;;;;;;;3.83;2.38;;;;;;;14.58;100.00;98955.94;5113780;28;20048;-82
2022/09/04 00:54:30;;;;;;;3.78;2.45;;;;;;;14.44;100.00;98954.31;5113110;28;20403;-82
2022/09/04 00:57:26;;;;;;;4.13;2.10;;;;;;;14.58;100.00;98955.09;5110471;28;20043;-82
2022/09/04 01:00:06;;;;;;;4.47;2.40;;;;;;;14.41;100.00;98952.00;5113416;28;20051;-82
2022/09/04 01:02:50;;;;;;;3.08;2.40;;;;;;;14.46;100.00;98949.47;5112748;28;20069;-82
2022/09/04 01:05:37;;;;;;;4.07;2.90;;;;;;;14.34;100.00;98955.56;5112764;28;20045;-82
2022/09/04 01:08:19;;;;;;;4.93;2.58;;;;;;;14.29;100.00;98962.75;5113984;28;20043;-82
2022/09/04 01:10:56;;;;;;;5.20;2.55;;;;;;;14.10;100.00;98968.03;5113305;28;20047;-82
2022/09/04 01:13:32;;;;;;;7.75;2.78;;;;;;;14.11;100.00;98988.03;5111166;28;20056;-82
2022/09/04 01:16:09;;;;;;;3.90;2.67;;;;;;;14.15;100.00;98967.41;5112386;28;20054;-82
2022/09/04 01:18:44;;;;;;;4.20;2.45;;;;;;;14.05;100.00;98967.84;5113011;28;20101;-81
2022/09/04 01:21:29;;;;;;;3.53;2.85;;;;;;;14.22;100.00;98979.16;5113269;28;20051;-81
2022/09/04 01:24:22;;;;;;;3.22;2.20;;;;;;;14.11;100.00;98979.84;5110733;28;20044;-81
2022/09/04 01:26:59;;;;;;;2.92;2.60;;;;;;;13.99;100.00;98985.94;5111333;28;20048;-81
2022/09/04 01:29:33;;;;;;;5.45;2.40;;;;;;;13.95;100.00;98981.94;5113184;28;20131;-81
2022/09/04 01:32:08;;;;;;;2.92;2.03;;;;;;;14.01;100.00;98998.56;5112859;28;20384;-81
2022/09/04 01:34:42;;;;;;;3.20;2.35;;;;;;;13.96;100.00;98980.88;5111937;28;20051;-81
2022/09/04 01:37:20;;;;;;;6.25;3.05;;;;;;;14.21;100.00;98991.19;5105181;28;20044;-81
2022/09/04 01:39:56;;;;;;;6.00;2.72;;;;;;;14.18;100.00;98999.78;5111439;28;20543;-81
2022/09/04 01:42:34;;;;;;;3.47;2.42;;;;;;;13.96;100.00;98985.53;5112360;28;20044;-81
2022/09/04 01:45:01;;;;;;;4.35;2.25;;;;;;;13.98;100.00;98991.59;5112612;28;20040;-82
2022/09/04 01:47:35;;;;;;;3.53;2.38;;;;;;;13.98;100.00;98995.19;5112848;28;20043;-81
2022/09/04 01:50:06;;;;;;;2.92;2.22;;;;;;;14.10;100.00;99008.22;5112601;28;20404;-81
2022/09/04 01:52:41;;;;;;;3.65;2.55;;;;;;;14.14;100.00;99013.03;5111197;28;20471;-82
2022/09/04 01:55:16;;;;;;;3.67;2.10;;;;;;;14.08;100.00;99007.59;5112388;28;20066;-81
2022/09/04 01:58:09;;;;;;;4.32;2.70;;;;;;;14.01;100.00;99007.59;5112798;28;20055;-81
2022/09/04 02:00:45;;;;;;;2.90;2.45;;;;;;;14.01;100.00;99004.03;5112448;28;20047;-82
2022/09/04 02:03:21;;;;;;;3.00;1.95;;;;;;;14.02;100.00;98997.50;5111927;28;20078;-82
2022/09/04 02:06:02;;;;;;;3.38;2.35;;;;;;;13.95;100.00;98997.50;5110768;28;20056;-81
2022/09/04 02:08:39;;;;;;;4.60;2.45;;;;;;;13.86;100.00;98993.31;5108562;28;20044;-81
2022/09/04 02:11:11;;;;;;;3.42;2.17;;;;;;;13.76;100.00;99010.09;5112437;28;20066;-82
2022/09/04 02:13:52;;;;;;;10.55;2.40;;;;;;;13.84;100.00;99017.28;5111855;28;20138;-82
2022/09/04 02:16:29;;;;;;;3.88;2.60;;;;;;;13.64;100.00;99009.91;5112255;28;20043;-82
2022/09/04 02:19:06;;;;;;;6.85;1.92;;;;;;;13.65;100.00;99027.94;5112289;28;20086;-81
2022/09/04 02:21:36;;;;;;;7.30;2.25;;;;;;;13.71;100.00;99020.81;5103990;28;20047;-81
2022/09/04 02:24:12;;;;;;;;;;;;;;;13.70;100.00;99020.00;5111598;28;20527;-80
2022/09/04 02:26:45;;;;;;;2.15;1.85;;;;;;;13.76;100.00;99021.88;5112165;28;19920;-80
2022/09/04 02:29:23;;;;;;;4.93;2.60;;;;;;;13.63;100.00;99016.41;5111663;28;20052;-81
2022/09/04 02:31:58;;;;;;;3.38;2.55;;;;;;;13.58;100.00;99019.75;5111970;28;20491;-80
2022/09/04 02:34:34;;;;;;;4.00;2.72;;;;;;;13.61;100.00;99021.25;5110091;28;20112;-80
2022/09/04 02:37:09;;;;;;;3.53;2.53;;;;;;;13.56;100.00;99021.00;5112088;28;20035;-80
2022/09/04 02:39:45;;;;;;;2.30;2.10;;;;;;;13.56;100.00;99030.03;5103765;28;20066;-80
2022/09/04 02:42:19;;;;;;;5.22;2.60;;;;;;;13.51;100.00;99027.09;5110952;28;20048;-80
2022/09/04 02:44:59;;;;;;;2.42;1.98;;;;;;;13.46;100.00;99029.63;5111845;28;20052;-80
2022/09/04 02:47:33;;;;;;;3.38;2.17;;;;;;;13.48;100.00;99030.25;5111320;28;20517;-80
2022/09/04 02:50:09;;;;;;;3.40;2.53;;;;;;;13.44;100.00;99040.75;5110841;28;20044;-80
2022/09/04 02:52:51;;;;;;;3.05;2.50;;;;;;;13.34;100.00;99031.25;5110413;28;20054;-81
2022/09/04 02:55:31;;;;;;;2.55;1.92;;;;;;;13.49;100.00;99039.28;5111454;28;20433;-81
2022/09/04 02:58:03;;;;;;;;;;;;;;;13.47;100.00;99036.75;5106182;28;20043;-81
2022/09/04 03:00:41;;;;;;;2.75;2.25;;;;;;;13.36;100.00;99029.19;5110947;28;19920;-81
2022/09/04 03:03:13;;;;;;;3.15;2.38;;;;;;;13.30;100.00;99030.81;5109972;27;20040;-80
2022/09/04 03:05:49;;;;;;;2.47;2.20;;;;;;;13.30;100.00;99025.34;5109806;28;20048;-81
2022/09/04 03:08:22;;;;;;;2.13;1.90;;;;;;;13.22;100.00;99031.00;5111542;28;20127;-81
2022/09/04 03:10:55;;;;;;;8.27;2.55;;;;;;;13.31;100.00;99040.69;5102846;28;20055;-80
2022/09/04 03:13:27;;;;;;;3.10;1.80;;;;;;;13.22;100.00;99039.19;5110731;28;20051;-81
2022/09/04 03:16:01;;;;;;;2.13;1.90;;;;;;;13.20;100.00;99023.03;5103534;28;20050;-80
2022/09/04 03:18:34;;;;;;;2.08;1.73;;;;;;;13.18;100.00;99016.06;5110168;28;20040;-80
2022/09/04 03:21:06;;;;;;;3.35;2.17;;;;;;;13.24;100.00;99039.81;5104008;28;20046;-81
2022/09/04 03:23:40;;;;;;;2.38;2.03;;;;;;;13.15;100.00;99030.97;5109950;28;20040;-81
2022/09/04 03:26:26;;;;;;;3.70;1.83;;;;;;;13.11;100.00;99037.88;5111158;28;20055;-81
2022/09/04 03:29:03;;;;;;;4.10;1.73;;;;;;;13.01;100.00;99030.09;5110775;28;20597;-81
2022/09/04 03:31:40;;;;;;;2.97;1.85;;;;;;;13.16;100.00;99034.53;5109232;28;20530;-81
2022/09/04 03:34:20;;;;;;;4.07;1.98;;;;;;;13.06;100.00;99037.66;5103855;28;20048;-81
2022/09/04 03:37:00;;;;;;;2.50;2.10;;;;;;;13.04;100.00;99034.31;5110581;28;20074;-81
2022/09/04 03:39:40;;;;;;;3.75;2.28;;;;;;;13.01;100.00;99030.09;5110759;28;20055;-81
2022/09/04 03:42:15;;;;;;;5.70;2.40;;;;;;;13.13;100.00;99040.41;5102391;28;20054;-81
2022/09/04 03:44:54;;;;;;;2.22;1.92;;;;;;;12.97;100.00;99041.59;5110777;28;20052;-81
2022/09/04 03:47:32;;;;;;;2.73;2.17;;;;;;;12.95;100.00;99044.53;5110738;28;20067;-80
2022/09/04 03:50:12;;;;;;;4.78;2.17;;;;;;;12.97;100.00;99047.91;5109642;28;20055;-81
2022/09/04 03:52:49;;;;;;;4.32;2.95;;;;;;;12.88;100.00;99032.75;5109920;28;20249;-81
2022/09/04 03:55:49;;;;;;;3.67;2.10;;;;;;;12.94;100.00;99056.50;5109686;28;20047;-80
2022/09/04 03:58:27;;;;;;;5.50;2.28;;;;;;;12.86;100.00;99048.50;5102057;28;20040;-81
2022/09/04 04:01:04;;;;;;;3.85;2.28;;;;;;;12.66;100.00;99037.47;5110101;28;20748;-81
2022/09/04 04:03:51;;;;;;;5.18;1.75;;;;;;;12.75;100.00;99058.94;5110101;28;20075;-81
2022/09/04 04:06:28;;;;;;;2.45;2.13;;;;;;;12.71;100.00;99065.00;5100777;28;20403;-81
2022/09/04 04:09:31;;;;;;;3.80;1.88;;;;;;;12.68;100.00;99068.13;5110486;28;20062;-81
2022/09/04 04:12:15;;;;;;;2.55;1.83;;;;;;;12.60;100.00;99066.41;5107262;28;20051;-81
2022/09/04 04:15:06;;;;;;;6.18;2.22;;;;;;;12.53;100.00;99052.72;5108979;28;20047;-81
2022/09/04 04:18:04;;;;;;;3.90;2.00;;;;;;;12.67;100.00;99066.44;5101302;28;20043;-81
2022/09/04 04:20:40;;;;;;;2.78;2.10;;;;;;;12.68;100.00;99073.56;5103040;28;20043;-81
2022/09/04 04:23:36;;;;;;;5.32;4.18;;;;;;;12.59;100.00;99078.34;5109628;28;20402;-81
2022/09/04 04:26:09;;;;;;;3.80;2.00;;;;;;;12.53;100.00;99079.97;5110023;28;20099;-81
2022/09/04 04:29:00;;;;;;;3.60;1.90;;;;;;;12.47;100.00;99069.88;5105678;28;20044;-81
2022/09/04 04:31:40;;;;;;;4.47;2.08;;;;;;;12.65;100.00;99085.72;5109949;28;20044;-81
2022/09/04 04:34:15;;;;;;;2.92;2.15;;;;;;;12.67;100.00;99089.06;5109502;28;20048;-81
2022/09/04 04:36:52;;;;;;;4.28;2.15;;;;;;;12.52;100.00;99078.28;5103730;28;20058;-81
2022/09/04 04:39:30;;;;;;;3.80;2.05;;;;;;;12.54;100.00;99095.31;5110000;28;20503;-80
2022/09/04 04:42:17;;;;;;;5.85;1.70;;;;;;;12.55;100.00;99098.88;5110207;28;20059;-81
2022/09/04 04:48:13;;;;;;;2.42;1.90;;;;;;;12.42;100.00;99099.63;5108214;28;20051;-81
2022/09/04 04:50:50;;;;;;;2.28;1.67;;;;;;;12.50;100.00;99096.75;5109995;28;20052;-81
2022/09/04 04:53:25;;;;;;;5.32;2.53;;;;;;;12.64;100.00;99122.22;5109234;28;20036;-81
2022/09/04 04:55:58;;;;;;;2.95;1.98;;;;;;;12.55;100.00;99120.69;5103102;28;20048;-81
2022/09/04 04:58:40;;;;;;;3.92;2.05;;;;;;;12.43;100.00;99119.56;5108866;28;20051;-80
2022/09/04 05:01:16;;;;;;;4.72;2.08;;;;;;;12.46;100.00;99130.06;5110057;28;20040;-81
2022/09/04 05:03:59;;;;;;;2.42;2.05;;;;;;;12.40;100.00;99131.69;5108875;28;20047;-81
2022/09/04 05:06:35;;;;;;;2.63;1.98;;;;;;;12.44;100.00;99127.53;5107927;28;20043;-81
2022/09/04 05:09:12;;;;;;;7.68;2.22;;;;;;;12.37;100.00;99138.41;5111386;28;20047;-81
2022/09/04 05:11:50;;;;;;;2.53;1.80;;;;;;;12.33;100.00;99125.31;5113594;28;20055;-81
2022/09/04 05:14:28;;;;;;;2.85;2.15;;;;;;;12.34;100.00;99146.09;5112516;27;20050;-80
2022/09/04 05:17:04;;;;;;;3.22;2.17;;;;;;;12.42;100.00;99140.53;5111802;28;20039;-81
2022/09/04 05:19:38;;;;;;;3.97;2.30;;;;;;;12.49;100.00;99146.84;5112982;28;20052;-80
2022/09/04 05:22:13;;;;;;;5.20;2.30;;;;;;;12.42;100.00;99145.97;5112969;28;20036;-82
2022/09/04 05:24:51;;;;;;;2.92;2.00;;;;;;;12.50;100.00;99153.16;5113211;28;20048;-81
2022/09/04 05:27:41;;;;;;;3.28;2.47;;;;;;;12.50;100.00;99169.53;5112640;28;20043;-81
2022/09/04 05:30:15;;;;;;;6.00;2.70;;;;;;;12.48;100.00;99163.41;5106807;28;20048;-81
2022/09/04 05:32:51;;;;;;;3.38;2.40;;;;;;;12.50;100.00;99174.97;5111838;28;20499;-81
2022/09/04 05:35:26;;;;;;;5.28;2.40;;;;;;;12.67;100.00;99189.16;5113272;28;20096;-81
2022/09/04 05:38:02;;;;;;;3.05;2.22;;;;;;;12.69;100.00;99170.69;5112998;28;20547;-80
2022/09/04 05:40:38;;;;;;;2.90;2.15;;;;;;;12.76;100.00;99182.50;5112977;28;20063;-81
2022/09/04 05:43:16;;;;;;;2.55;2.30;;;;;;;12.77;100.00;99173.28;5102593;28;20047;-81
2022/09/04 05:46:07;;;;;;;4.65;2.47;;;;;;;13.00;100.00;99189.41;5112801;28;20051;-81
2022/09/04 05:48:42;;;;;;;5.05;2.60;;;;;;;13.10;100.00;99187.16;5112639;28;20400;-81
2022/09/04 05:51:44;;;;;;;3.17;2.20;;;;;;;13.26;100.00;99177.81;5113039;28;20059;-80
2022/09/04 05:54:33;;;;;;;2.45;2.10;;;;;;;13.36;100.00;99179.34;5112098;28;20046;-80
2022/09/04 05:57:34;;;;;;;3.95;2.83;;;;;;;13.62;100.00;99193.13;5111467;28;20456;-80
2022/09/04 06:00:09;;;;;;;2.42;2.20;;;;;;;13.97;100.00;99195.75;5112620;28;20063;-80
2022/09/04 06:03:14;;;;;;;3.05;2.35;;;;;;;14.28;100.00;99209.91;5112025;28;20044;-81
2022/09/04 06:05:51;;;;;;;3.25;2.20;;;;;;;14.31;100.00;99195.81;5106159;27;20047;-80
2022/09/04 06:08:41;;;;;;;5.45;2.40;;;;;;;14.44;100.00;99203.19;5104784;28;20065;-81
2022/09/04 06:11:39;;;;;;;4.75;2.13;;;;;;;14.33;100.00;99207.38;5109945;28;20054;-80
2022/09/04 06:14:25;;;;;;;2.88;1.95;;;;;;;14.30;100.00;99205.91;5109937;28;20050;-80
2022/09/04 06:17:05;;;;;;;3.15;2.30;;;;;;;14.56;100.00;99219.81;5112044;28;20056;-80
2022/09/04 06:19:45;;;;;;;4.35;2.22;;;;;;;14.98;100.00;99209.50;5105719;28;20036;-81
2022/09/04 06:22:58;;;;;;;4.43;3.13;;;;;;;15.82;100.00;99224.28;5110693;28;20498;-80
2022/09/04 06:25:58;;;;;;;6.07;3.30;;;;;;;16.15;100.00;99214.19;5080733;28;20044;-81
2022/09/04 06:28:39;;;;;;;2.90;2.30;;;;;;;16.73;100.00;99216.75;5107873;27;20039;-81
2022/09/04 06:31:29;;;;;;;5.40;2.50;;;;;;;16.99;98.93;99228.59;5112273;28;20048;-80
2022/09/04 06:34:01;;;;;;;3.30;2.72;;;;;;;17.11;98.08;99215.78;5111492;28;20055;-80
2022/09/04 06:36:46;;;;;;;3.55;2.33;;;;;;;17.48;96.29;99224.06;5104307;28;20078;-81
2022/09/04 06:39:32;;;;;;;3.22;2.10;;;;;;;17.59;95.78;99238.97;5111305;28;20051;-81
2022/09/04 06:42:14;;;;;;;3.20;2.13;;;;;;;17.81;95.62;99236.59;5111493;28;20043;-81
2022/09/04 06:44:56;;;;;;;2.05;1.85;;;;;;;18.02;93.92;99223.44;5105507;28;20403;-81
2022/09/04 06:47:37;;;;;;;2.10;1.90;;;;;;;18.25;93.66;99236.47;5109140;28;20039;-81
2022/09/04 06:50:18;;;;;;;4.15;2.00;;;;;;;18.60;93.03;99244.00;5108205;28;20067;-80
2022/09/04 06:52:59;;;;;;;4.03;2.25;;;;;;;18.85;92.94;99252.09;5105026;28;20046;-81
2022/09/04 06:55:32;;;;;;;4.85;2.20;;;;;;;18.97;90.24;99232.84;5111490;28;20079;-81
2022/09/04 06:58:13;;;;;;;3.45;2.25;;;;;;;18.85;97.18;99234.72;5110430;28;20059;-81
2022/09/04 07:00:46;;;;;;;4.35;2.10;;;;;;;19.14;96.61;99249.50;5105934;28;20403;-82
2022/09/04 07:03:31;;;;;;;5.65;2.45;;;;;;;19.15;95.17;99242.06;5110479;28;20048;-83
2022/09/04 07:06:08;;;;;;;4.45;2.70;;;;;;;19.20;96.08;99237.50;5110301;28;20135;-83
2022/09/04 07:08:50;;;;;;;5.78;2.70;;;;;;;19.08;99.18;99247.69;5111379;27;20056;-82
2022/09/04 07:11:24;;;;;;;4.68;2.78;;;;;;;19.21;96.72;99261.25;5111360;28;20053;-82
2022/09/04 07:14:15;;;;;;;3.75;2.53;;;;;;;19.17;97.80;99260.03;5109125;28;20048;-83
2022/09/04 07:16:48;;;;;;;5.30;2.35;;;;;;;19.03;98.28;99247.56;5109216;28;20079;-83
2022/09/04 07:19:50;;;;;;;4.70;2.08;;;;;;;19.18;97.66;99267.22;5111436;28;20044;-83
2022/09/04 07:22:45;;;;;;;7.93;2.63;;;;;;;18.90;97.55;99271.50;5104776;28;20075;-83
2022/09/04 07:25:17;;;;;;;10.82;2.70;;;;;;;18.90;100.00;99270.66;5106708;28;20481;-82
2022/09/04 07:28:07;;;;;;;2.72;2.50;;;;;;;18.87;99.27;99257.38;5109991;28;20134;-83
2022/09/04 07:30:42;;;;;;;4.85;2.13;;;;;;;18.88;99.43;99272.84;5110259;28;20049;-83
2022/09/04 07:33:16;;;;;;;3.80;2.40;;;;;;;18.92;98.23;99274.88;5108321;28;20075;-83
2022/09/04 07:35:50;;;;;;;3.88;2.60;;;;;;;19.20;99.65;99281.59;5108307;28;20047;-83
2022/09/04 07:38:26;;;;;;;5.05;2.22;;;;;;;19.09;98.41;99261.22;5111350;28;20054;-83
2022/09/04 07:41:01;;;;;;;5.75;2.50;;;;;;;19.18;99.56;99280.16;5103069;28;20131;-83
2022/09/04 07:43:36;;;;;;;3.80;2.33;;;;;;;19.22;97.36;99284.94;5103200;28;20047;-83
2022/09/04 07:46:10;;;;;;;3.05;2.47;;;;;;;19.15;96.69;99275.97;5110200;28;20054;-83
2022/09/04 07:48:44;;;;;;;3.60;2.65;;;;;;;19.34;96.88;99284.13;5111080;28;20132;-83
2022/09/04 07:51:15;;;;;;;3.40;2.53;;;;;;;19.28;97.03;99272.13;5111261;28;20055;-83
2022/09/04 07:54:28;;;;;;;3.15;2.20;;;;;;;19.39;93.07;99271.31;5110008;28;20051;-84
2022/09/04 07:57:17;;;;;;;2.63;2.35;;;;;;;19.56;95.99;99295.41;5105520;28;20051;-84
2022/09/04 08:00:01;;;;;;;2.85;2.35;;;;;;;19.64;95.70;99293.09;5109383;28;20081;-84
2022/09/04 08:02:38;;;;;;;2.25;2.05;;;;;;;19.48;97.06;99287.47;5101547;28;20042;-84
2022/09/04 08:05:24;;;;;;;3.10;2.60;;;;;;;19.65;94.31;99293.94;5108659;28;20052;-84
2022/09/04 08:08:28;;;;;;;3.55;2.47;;;;;;;19.67;95.33;99286.25;5109739;28;20051;-84
2022/09/04 08:11:27;;;;;;;5.50;2.50;;;;;;;19.75;93.79;99294.19;5106968;28;20047;-84
2022/09/04 08:14:14;;;;;;;3.60;2.90;;;;;;;19.94;93.57;99305.91;5109935;28;20050;-84
2022/09/04 08:16:48;;;;;;;3.47;2.60;;;;;;;20.08;92.07;99314.78;5103846;28;20048;-84
2022/09/04 08:19:29;;;;;;;4.50;2.35;;;;;;;20.06;92.59;99294.84;5110181;28;20044;-84
2022/09/04 08:21:56;;;;;;;4.78;2.47;;;;;;;19.94;91.16;99314.19;5110635;28;20047;-84
2022/09/04 08:24:44;;;;;;;3.03;2.55;;;;;;;19.79;90.40;99300.91;5109034;28;20043;-84
2022/09/04 08:27:26;;;;;;;3.50;2.20;;;;;;;20.03;91.04;99325.69;5107023;28;20134;-84
2022/09/04 08:30:05;;;;;;;3.72;2.10;;;;;;;20.04;91.07;99324.63;5110465;28;20047;-84
2022/09/04 08:33:16;;;;;;;4.20;2.28;;;;;;;20.06;89.68;99311.41;5108735;28;20094;-83
2022/09/04 08:35:52;;;;;;;5.15;2.38;;;;;;;20.04;89.64;99321.00;5060895;28;20063;-84
2022/09/04 08:38:34;;;;;;;1.90;1.73;;;;;;;20.18;92.65;99336.22;5109816;28;20152;-84
2022/09/04 08:41:37;;;;;;;2.33;1.95;;;;;;;20.27;88.81;99333.94;5104732;28;20134;-84
2022/09/04 08:44:28;;;;;;;6.15;2.25;;;;;;;20.15;87.94;99337.53;5088261;28;20044;-84
2022/09/04 08:47:39;;;;;;;3.55;2.10;;;;;;;20.39;90.98;99337.47;5108829;28;20526;-84
2022/09/04 08:50:34;;;;;;;2.80;2.10;;;;;;;20.32;86.99;99332.13;5066732;28;20054;-84
2022/09/04 08:53:36;;;;;;;2.20;2.00;;;;;;;20.41;87.48;99338.06;5065276;28;20044;-84
2022/09/04 08:56:20;;;;;;;2.60;1.88;;;;;;;20.50;85.47;99339.38;5111244;28;20047;-85
2022/09/04 08:59:32;;;;;;;2.80;2.13;;;;;;;20.55;86.17;99346.91;5113188;28;20053;-85
2022/09/04 09:02:41;;;;;;;2.97;2.00;;;;;;;20.64;84.46;99342.69;5113756;28;20044;-84
2022/09/04 09:05:45;;;;;;;3.15;1.90;;;;;;;20.78;83.38;99329.44;5108934;28;20054;-84
2022/09/04 09:08:44;;;;;;;2.72;1.80;;;;;;;20.96;82.08;99328.38;5110157;28;20046;-84
2022/09/04 09:11:43;;;;;;;1.92;1.70;;;;;;;20.97;81.68;99335.59;5107987;28;20059;-84
2022/09/04 09:14:40;;;;;;;2.22;1.50;;;;;;;20.72;80.48;99330.41;5102563;28;20105;-84
2022/09/04 09:17:12;;;;;;;1.75;1.30;;;;;;;21.02;80.76;99332.06;5107957;28;20047;-84
2022/09/04 09:19:50;;;;;;;2.58;1.63;;;;;;;21.25;78.43;99342.13;5113339;28;20077;-84
2022/09/04 09:22:50;;;;;;;3.65;1.73;;;;;;;21.14;78.37;99335.59;5112880;28;20039;-83
2022/09/04 09:25:19;;;;;;;3.30;1.65;;;;;;;21.09;79.94;99330.00;5113124;28;20073;-84
2022/09/04 09:28:27;;;;;;;3.08;1.27;;;;;;;21.29;79.70;99335.00;5110045;28;20406;-84
2022/09/04 09:31:41;;;;;;;4.30;1.38;;;;;;;21.63;77.45;99331.41;5113750;28;20050;-84
2022/09/04 09:34:46;;;;;;;2.15;1.30;;;;;;;21.53;76.34;99321.03;5108811;27;20043;-84
2022/09/04 09:37:48;;;;;;;2.78;1.80;;;;;;;21.59;77.12;99317.25;5113577;28;20044;-84
2022/09/04 09:40:42;;;;;;;3.33;1.17;;;;;;;21.76;75.37;99317.22;5106096;28;20048;-84
2022/09/04 09:43:49;;;;;;;2.97;1.20;;;;;;;21.79;74.91;99310.34;5104645;28;20131;-84
2022/09/04 09:46:39;;;;;;;1.60;1.20;;;;;;;21.86;72.84;99306.31;5110047;27;20040;-83
2022/09/04 09:49:53;;;;;;;5.88;1.50;;;;;;;21.87;72.88;99305.19;5105148;28;20082;-83
2022/09/04 09:52:48;;;;;;;1.88;1.25;;;;;;;22.01;72.35;99304.81;5112686;28;20384;-83
2022/09/04 09:55:48;;;;;;;4.32;1.33;;;;;;;22.28;72.84;99311.28;5105767;28;20085;-84
2022/09/04 09:58:58;;;;;;;1.73;1.40;;;;;;;22.58;71.06;99307.22;5106181;28;20040;-84
2022/09/04 10:01:56;;;;;;;4.25;1.52;;;;;;;22.53;70.92;99298.00;5111828;28;20048;-83
2022/09/04 10:05:05;;;;;;;2.90;1.35;;;;;;;22.48;68.44;99303.47;5107343;28;20051;-84
2022/09/04 10:08:14;;;;;;;1.43;1.10;;;;;;;22.79;68.92;99299.94;5098375;28;20047;-83
2022/09/04 10:11:05;;;;;;;3.58;1.20;;;;;;;23.22;67.75;99304.78;5110798;28;20641;-84
2022/09/04 10:13:58;;;;;;;2.08;1.30;;;;;;;23.24;66.53;99299.78;5112291;28;20040;-84
2022/09/04 10:17:05;;;;;;;1.80;1.08;;;;;;;22.86;67.07;99316.34;5105662;28;20481;-84
2022/09/04 10:20:04;;;;;;;2.30;1.15;;;;;;;22.65;66.38;99320.84;5107301;28;20044;-85
2022/09/04 10:23:14;;;;;;;1.10;1.00;;;;;;;22.67;66.53;99315.03;5106248;28;20489;-83
2022/09/04 10:26:00;;;;;;;1.48;1.00;;;;;;;22.62;66.16;99324.13;5110031;28;20079;-84
2022/09/04 10:28:48;;;;;;;2.28;1.20;;;;;;;22.75;65.93;99306.28;5107789;28;20047;-84
2022/09/04 10:31:50;;;;;;;2.33;1.00;;;;;;;23.15;63.68;99307.75;5111661;28;20047;-84
2022/09/04 10:34:34;;;;;;;2.55;1.00;;;;;;;23.46;60.11;99306.06;5111515;28;20483;-84
2022/09/04 10:37:16;;;;;;;2.33;1.00;;;;;;;23.60;56.23;99292.56;5095220;28;20104;-83
2022/09/04 10:43:00;;;;;;;15.70;8.23;;;;;;;24.13;54.80;99298.16;5109619;28;20082;-83
2022/09/04 10:45:33;;;;;;;1.92;0.98;;;;;;;24.14;53.41;99310.09;5108644;28;20439;-84
2022/09/04 10:48:36;;;;;;;2.35;0.90;;;;;;;24.29;54.57;99296.25;5109576;28;20082;-84
2022/09/04 10:51:35;;;;;;;2.70;1.17;;;;;;;24.53;54.50;99299.41;5111946;28;20050;-84
2022/09/04 10:54:17;;;;;;;1.75;1.00;;;;;;;24.55;53.49;99304.69;5108235;28;20491;-84
2022/09/04 10:56:58;;;;;;;2.80;1.13;;;;;;;24.60;53.58;99298.31;5111776;28;20070;-84
2022/09/04 10:59:56;;;;;;;3.85;0.82;;;;;;;24.69;54.18;99291.13;5103521;28;20051;-84
2022/09/04 11:02:58;;;;;;;2.63;1.08;;;;;;;24.77;53.91;99293.38;5095934;28;20195;-84
2022/09/04 11:05:40;;;;;;;0.85;0.85;;;;;;;24.68;52.86;99287.50;5110155;28;20067;-83
2022/09/04 11:08:35;;;;;;;1.88;1.27;;;;;;;24.29;54.20;99289.88;5110769;27;20112;-84
2022/09/04 11:11:19;;;;;;;1.27;1.10;;;;;;;23.81;55.27;99309.34;5108234;28;20092;-84
2022/09/04 11:14:07;;;;;;;2.25;1.13;;;;;;;23.60;55.41;99298.09;5105026;28;20047;-84
2022/09/04 11:17:13;;;;;;;1.48;1.05;;;;;;;23.26;55.47;99298.44;5111136;28;20047;-85
2022/09/04 11:20:12;;;;;;;1.67;1.33;;;;;;;23.14;54.75;99279.22;5104443;28;20051;-84
2022/09/04 11:23:03;;;;;;;1.43;1.20;;;;;;;23.15;53.04;99283.66;5109514;28;20065;-84
2022/09/04 11:26:08;;;;;;;3.88;1.20;;;;;;;23.50;52.47;99296.13;5110669;28;20059;-84
2022/09/04 11:29:02;;;;;;;2.75;1.20;;;;;;;23.94;50.00;99285.88;5110810;28;20052;-83
2022/09/04 11:31:45;;;;;;;0.80;0.80;;;;;;;24.26;50.04;99287.66;5087610;28;20490;-84
2022/09/04 11:34:49;;;;;;;1.23;1.02;;;;;;;24.14;50.44;99279.56;5110391;28;20035;-84
2022/09/04 11:37:55;;;;;;;1.92;1.00;;;;;;;24.33;49.91;99272.41;5110175;28;20045;-85
2022/09/04 11:41:09;;;;;;;1.95;1.00;;;;;;;24.51;49.54;99264.66;5110504;28;20134;-84
2022/09/04 11:44:16;;;;;;;1.08;1.00;;;;;;;24.79;49.34;99273.63;5109735;28;20047;-85
2022/09/04 11:47:05;;;;;;;1.80;1.23;;;;;;;25.20;47.49;99268.94;5103241;28;20059;-85
2022/09/04 11:49:50;;;;;;;1.77;1.07;;;;;;;25.50;46.76;99264.44;5110368;28;20040;-85
2022/09/04 11:52:27;;;;;;;0.93;0.80;;;;;;;25.85;45.85;99268.28;5110184;28;20050;-85
2022/09/04 11:59:00;;;;;;;3.05;1.13;;;;;;;25.96;42.35;99278.25;5080703;28;20480;-83
2022/09/04 12:01:49;;;;;;;1.73;1.00;;;;;;;26.26;43.02;99268.13;5109261;27;20043;-83
2022/09/04 12:04:33;;;;;;;2.90;0.80;;;;;;;26.33;42.60;99270.59;5110219;28;20085;-83
2022/09/04 12:07:12;;;;;;;1.42;1.10;;;;;;;26.42;42.36;99273.59;5104046;28;20044;-83
2022/09/04 12:10:00;;;;;;;1.70;0.90;;;;;;;26.16;42.06;99279.31;5108587;28;20127;-83
2022/09/04 12:13:06;;;;;;;1.20;0.98;;;;;;;26.35;42.55;99278.69;5109354;28;20056;-86
2022/09/04 12:16:14;;;;;;;1.23;0.60;;;;;;;26.49;41.92;99266.59;5087778;28;20040;-84
2022/09/04 12:19:21;;;;;;;1.92;0.60;;;;;;;26.66;41.86;99263.47;5048554;28;20076;-85
2022/09/04 12:22:17;;;;;;;2.40;0.80;;;;;;;26.68;42.20;99268.75;5071994;28;20048;-86
2022/09/04 12:25:22;;;;;;;1.55;0.90;;;;;;;26.97;42.04;99279.13;5069142;28;20105;-85
2022/09/04 12:28:26;;;;;;;1.58;0.98;;;;;;;27.11;41.54;99277.34;5107748;28;20079;-83
2022/09/04 12:31:07;;;;;;;1.50;1.08;;;;;;;27.01;40.96;99257.91;5112820;28;20112;-84
2022/09/04 12:34:09;;;;;;;0.90;0.80;;;;;;;27.09;41.13;99271.22;5110924;28;20058;-85
2022/09/04 12:37:18;;;;;;;0.90;0.70;;;;;;;27.32;40.57;99261.28;5098593;28;20052;-85
2022/09/04 12:40:12;;;;;;;1.20;0.80;;;;;;;27.28;40.29;99253.75;5101831;27;20051;-84
2022/09/04 12:42:48;;;;;;;0.80;0.80;;;;;;;27.49;40.01;99266.44;5113695;28;20050;-84
2022/09/04 12:45:24;;;;;;;0.70;0.70;;;;;;;27.33;39.89;99268.53;5114348;28;20054;-84
2022/09/04 12:48:03;;;;;;;6.35;1.95;;;;;;;26.93;40.36;99250.97;5114104;28;20062;-84
2022/09/04 12:50:39;;;;;;;0.98;0.65;;;;;;;27.07;41.56;99258.69;5113687;28;20048;-84
2022/09/04 12:53:43;;;;;;;0.85;0.80;;;;;;;27.15;39.54;99266.44;5113322;28;20124;-84
2022/09/04 12:56:15;;;;;;;0.93;0.70;;;;;;;27.17;40.05;99265.03;5106762;28;20043;-83
2022/09/04 12:58:55;;;;;;;3.30;1.10;;;;;;;27.44;38.93;99268.44;5113961;28;20047;-84
2022/09/04 13:01:30;;;;;;;;;;;;;;;27.34;39.19;99274.94;5112968;28;20071;-84